createdAt,value
2022-12-25T00:01:45.297Z,24.73
2022-12-25T00:04:14.481Z,25.90
2022-12-25T00:06:43.771Z,25.88
2022-12-25T00:09:13.015Z,26.70
2022-12-25T00:11:43.679Z,27.55
2022-12-25T00:14:12.820Z,26.13
2022-12-25T00:16:42.101Z,24.90
2022-12-25T00:19:11.324Z,28.45
2022-12-25T00:21:40.510Z,28.55
2022-12-25T00:24:10.681Z,22.85
2022-12-25T00:26:40.591Z,25.42
2022-12-25T00:29:14.860Z,29.00
2022-12-25T00:31:44.067Z,24.88
2022-12-25T00:34:13.532Z,24.65
2022-12-25T00:36:42.630Z,23.20
2022-12-25T00:39:11.796Z,25.50
2022-12-25T00:41:54.902Z,22.33
2022-12-25T00:44:25.492Z,21.73
2022-12-25T00:46:54.811Z,24.25
2022-12-25T00:49:24.879Z,23.88
2022-12-25T00:51:55.316Z,26.23
2022-12-25T00:54:24.457Z,26.02
2022-12-25T00:56:53.709Z,25.45
2022-12-25T00:59:24.391Z,26.38
2022-12-25T01:01:53.726Z,26.33
2022-12-25T01:04:22.971Z,23.48
2022-12-25T01:06:52.146Z,31.40
2022-12-25T01:09:38.762Z,24.08
2022-12-25T01:12:08.388Z,28.23
2022-12-25T01:14:38.846Z,24.73
2022-12-25T01:17:07.945Z,23.27
2022-12-25T01:19:37.168Z,23.23
2022-12-25T01:22:06.244Z,23.48
2022-12-25T01:24:35.355Z,27.73
2022-12-25T01:27:04.469Z,20.42
2022-12-25T01:29:33.574Z,23.67
2022-12-25T01:32:04.204Z,22.23
2022-12-25T01:34:33.967Z,24.50
2022-12-25T01:37:03.524Z,21.95
2022-12-25T01:39:33.244Z,21.83
2022-12-25T01:42:02.317Z,22.05
2022-12-25T01:45:36.997Z,23.17
2022-12-25T01:48:13.249Z,18.92
2022-12-25T01:50:51.302Z,23.05
2022-12-25T01:53:20.493Z,22.52
2022-12-25T01:55:52.327Z,19.50
2022-12-25T01:58:22.336Z,21.60
2022-12-25T02:00:53.283Z,27.30
2022-12-25T02:03:24.759Z,21.75
2022-12-25T02:05:54.443Z,22.33
2022-12-25T02:08:24.350Z,21.90
2022-12-25T02:10:53.469Z,20.20
2022-12-25T02:13:22.799Z,21.80
2022-12-25T02:16:01.221Z,23.67
2022-12-25T02:18:43.614Z,21.48
2022-12-25T02:21:49.972Z,21.55
2022-12-25T02:24:48.619Z,21.52
2022-12-25T02:27:30.251Z,22.67
2022-12-25T02:30:06.656Z,18.63
2022-12-25T02:32:44.211Z,21.33
2022-12-25T02:35:18.486Z,17.48
2022-12-25T02:37:52.928Z,19.10
2022-12-25T02:40:30.823Z,17.52
2022-12-25T02:43:22.657Z,21.70
2022-12-25T02:46:23.891Z,23.45
2022-12-25T02:49:11.511Z,21.83
2022-12-25T02:52:03.686Z,20.17
2022-12-25T02:54:51.877Z,20.85
2022-12-25T02:57:44.859Z,19.63
2022-12-25T03:00:33.586Z,15.90
2022-12-25T03:03:26.089Z,21.13
2022-12-25T03:06:17.272Z,19.33
2022-12-25T03:08:53.139Z,16.10
2022-12-25T03:11:33.378Z,18.67
2022-12-25T03:14:21.407Z,19.15
2022-12-25T03:16:54.362Z,18.85
2022-12-25T03:19:47.914Z,16.38
2022-12-25T03:22:40.542Z,17.80
2022-12-25T03:25:37.043Z,15.75
2022-12-25T03:28:07.054Z,15.73
2022-12-25T03:31:02.852Z,16.25
2022-12-25T03:34:08.082Z,17.50
2022-12-25T03:36:50.654Z,17.38
2022-12-25T03:39:56.314Z,17.50
2022-12-25T03:43:00.978Z,15.65
2022-12-25T03:45:56.033Z,17.35
2022-12-25T03:48:44.775Z,15.55
2022-12-25T03:51:34.136Z,17.60
2022-12-25T03:54:25.449Z,17.40
2022-12-25T03:57:14.033Z,18.95
2022-12-25T04:00:00.662Z,23.45
2022-12-25T04:02:47.404Z,22.15
2022-12-25T04:05:34.162Z,15.07
2022-12-25T04:08:20.649Z,19.40
2022-12-25T04:11:09.125Z,15.85
2022-12-25T04:13:55.690Z,20.70
2022-12-25T04:16:41.523Z,19.17
2022-12-25T04:19:29.046Z,28.98
2022-12-25T04:22:15.596Z,24.85
2022-12-25T04:25:02.309Z,24.42
2022-12-25T04:27:50.459Z,22.27
2022-12-25T04:30:36.997Z,20.05
2022-12-25T04:33:32.075Z,19.55
2022-12-25T04:36:13.184Z,16.35
2022-12-25T04:38:43.044Z,17.20
2022-12-25T04:41:14.290Z,20.38
2022-12-25T04:43:44.877Z,19.30
2022-12-25T04:46:14.063Z,17.35
2022-12-25T04:48:43.206Z,14.80
2022-12-25T04:51:17.876Z,13.77
2022-12-25T04:53:51.099Z,14.60
2022-12-25T04:56:21.189Z,15.68
2022-12-25T04:58:54.581Z,13.23
2022-12-25T05:01:24.174Z,14.93
2022-12-25T05:03:53.417Z,14.77
2022-12-25T05:06:22.830Z,10.85
2022-12-25T05:08:51.982Z,16.30
2022-12-25T05:11:21.174Z,15.77
2022-12-25T05:13:51.797Z,13.18
2022-12-25T05:16:22.314Z,16.02
2022-12-25T05:18:52.512Z,11.27
2022-12-25T05:21:22.295Z,16.20
2022-12-25T05:23:52.172Z,14.65
2022-12-25T05:26:25.158Z,17.77
2022-12-25T05:28:56.668Z,22.40
2022-12-25T05:31:25.786Z,15.70
2022-12-25T05:33:54.920Z,14.10
2022-12-25T05:36:24.173Z,17.77
2022-12-25T05:38:53.351Z,18.23
2022-12-25T05:41:22.565Z,19.58
2022-12-25T05:43:51.628Z,13.60
2022-12-25T05:46:22.142Z,16.55
2022-12-25T05:48:51.244Z,11.90
2022-12-25T05:51:20.417Z,14.50
2022-12-25T05:53:49.988Z,20.08
2022-12-25T05:56:19.101Z,14.13
2022-12-25T05:58:48.195Z,15.30
2022-12-25T06:01:20.973Z,13.73
2022-12-25T06:03:51.676Z,12.20
2022-12-25T06:06:21.199Z,13.23
2022-12-25T06:08:50.271Z,12.25
2022-12-25T06:11:19.357Z,13.20
2022-12-25T06:13:52.015Z,15.00
2022-12-25T06:16:22.009Z,18.52
2022-12-25T06:18:53.234Z,16.58
2022-12-25T06:21:22.284Z,13.52
2022-12-25T06:23:51.800Z,18.30
2022-12-25T06:26:21.734Z,19.52
2022-12-25T06:28:51.031Z,16.45
2022-12-25T06:31:23.375Z,19.70
2022-12-25T06:33:53.998Z,22.98
2022-12-25T06:36:25.840Z,15.20
2022-12-25T06:38:55.359Z,16.23
2022-12-25T06:41:26.788Z,17.77
2022-12-25T06:43:58.717Z,16.95
2022-12-25T06:46:30.764Z,16.85
2022-12-25T06:49:01.933Z,17.85
2022-12-25T06:51:33.203Z,15.48
2022-12-25T06:54:04.356Z,14.68
2022-12-25T06:56:35.168Z,20.02
2022-12-25T06:59:07.057Z,15.75
2022-12-25T07:01:40.839Z,19.58
2022-12-25T07:04:17.350Z,23.75
2022-12-25T07:06:46.848Z,23.40
2022-12-25T07:09:16.028Z,20.70
2022-12-25T07:11:45.194Z,23.20
2022-12-25T07:14:23.740Z,23.20
2022-12-25T07:16:53.704Z,28.58
2022-12-25T07:19:24.367Z,35.25
2022-12-25T07:21:53.508Z,18.83
2022-12-25T07:24:23.214Z,22.55
2022-12-25T07:26:53.187Z,18.40
2022-12-25T07:29:22.333Z,16.23
2022-12-25T07:31:51.553Z,17.63
2022-12-25T07:34:21.149Z,18.80
2022-12-25T07:36:52.132Z,16.05
2022-12-25T07:39:21.579Z,22.15
2022-12-25T07:41:51.094Z,26.60
2022-12-25T07:44:20.528Z,24.00
2022-12-25T07:46:49.907Z,26.30
2022-12-25T07:49:19.113Z,26.85
2022-12-25T07:51:48.280Z,22.20
2022-12-25T07:54:19.033Z,20.58
2022-12-25T07:56:51.195Z,16.17
2022-12-25T07:59:20.756Z,17.63
2022-12-25T08:01:51.325Z,21.15
2022-12-25T08:04:20.736Z,19.15
2022-12-25T08:06:49.926Z,19.00
2022-12-25T08:09:20.528Z,19.10
2022-12-25T08:11:49.694Z,14.70
2022-12-25T08:14:19.029Z,15.25
2022-12-25T08:16:48.180Z,12.70
2022-12-25T08:19:17.453Z,11.50
2022-12-25T08:21:51.929Z,16.27
2022-12-25T08:24:30.523Z,16.00
2022-12-25T08:26:59.665Z,15.38
2022-12-25T08:29:29.546Z,14.93
2022-12-25T08:31:59.562Z,18.35
2022-12-25T08:34:28.715Z,11.93
2022-12-25T08:36:57.981Z,20.05
2022-12-25T08:39:28.679Z,17.58
2022-12-25T08:41:57.974Z,16.60
2022-12-25T08:44:27.482Z,18.25
2022-12-25T08:46:59.548Z,16.10
2022-12-25T08:49:29.199Z,18.45
2022-12-25T08:51:58.632Z,18.35
2022-12-25T08:54:31.027Z,15.93
2022-12-25T08:57:02.826Z,17.77
2022-12-25T08:59:32.709Z,22.75
2022-12-25T09:02:01.945Z,15.90
2022-12-25T09:04:31.108Z,17.45
2022-12-25T09:07:00.216Z,21.90
2022-12-25T09:09:31.892Z,18.48
2022-12-25T09:12:01.046Z,14.07
2022-12-25T09:14:31.455Z,14.38
2022-12-25T09:17:00.562Z,14.95
2022-12-25T09:19:29.853Z,12.43
2022-12-25T09:21:59.015Z,13.25
2022-12-25T09:24:28.346Z,24.10
2022-12-25T09:26:58.869Z,18.60
2022-12-25T09:29:27.982Z,15.10
2022-12-25T09:31:57.304Z,14.10
2022-12-25T09:34:26.374Z,18.40
2022-12-25T09:36:55.570Z,14.02
2022-12-25T09:39:24.862Z,17.58
2022-12-25T09:42:01.012Z,12.85
2022-12-25T09:44:36.078Z,14.70
2022-12-25T09:47:11.933Z,12.55
2022-12-25T09:49:49.645Z,16.27
2022-12-25T09:52:25.248Z,13.85
2022-12-25T09:55:00.995Z,11.35
2022-12-25T09:57:31.510Z,12.93
2022-12-25T10:00:00.778Z,11.13
2022-12-25T10:03:18.094Z,10.73
2022-12-25T10:06:15.323Z,9.90
2022-12-25T10:09:14.078Z,11.60
2022-12-25T10:12:05.348Z,10.07
2022-12-25T10:14:46.906Z,13.32
2022-12-25T10:17:33.828Z,17.33
2022-12-25T10:20:15.084Z,14.30
2022-12-25T10:22:47.766Z,15.25
2022-12-25T10:25:21.054Z,10.23
2022-12-25T10:27:54.029Z,11.07
2022-12-25T10:30:27.613Z,11.93
2022-12-25T10:32:58.982Z,10.45
2022-12-25T10:35:32.863Z,9.35
2022-12-25T10:38:04.308Z,12.18
2022-12-25T10:40:45.425Z,9.30
2022-12-25T10:43:20.931Z,8.48
2022-12-25T10:45:51.774Z,12.18
2022-12-25T10:48:26.485Z,13.65
2022-12-25T10:50:55.656Z,11.88
2022-12-25T10:53:27.749Z,8.77
2022-12-25T10:55:59.972Z,12.32
2022-12-25T10:58:30.341Z,10.93
2022-12-25T11:01:05.002Z,10.23
2022-12-25T11:03:38.621Z,6.53
2022-12-25T11:06:22.415Z,8.73
2022-12-25T11:08:55.495Z,7.80
2022-12-25T11:11:25.403Z,10.57
2022-12-25T11:13:57.956Z,9.82
2022-12-25T11:16:32.168Z,9.57
2022-12-25T11:19:01.850Z,10.13
2022-12-25T11:21:35.273Z,10.57
2022-12-25T11:24:07.111Z,11.85
2022-12-25T11:26:49.742Z,9.13
2022-12-25T11:29:32.230Z,14.70
2022-12-25T11:32:06.373Z,11.77
2022-12-25T11:34:42.220Z,11.57
2022-12-25T11:37:17.876Z,10.52
2022-12-25T11:39:47.054Z,11.90
2022-12-25T11:42:23.796Z,13.43
2022-12-25T11:45:02.342Z,14.43
2022-12-25T11:47:39.930Z,12.13
2022-12-25T11:50:24.227Z,11.10
2022-12-25T11:52:54.342Z,13.43
2022-12-25T11:55:36.647Z,15.20
2022-12-25T11:58:16.049Z,13.63
2022-12-25T12:00:51.042Z,13.60
2022-12-25T12:03:28.162Z,15.18
2022-12-25T12:06:03.035Z,13.85
2022-12-25T12:08:34.464Z,11.90
2022-12-25T12:11:20.682Z,13.23
2022-12-25T12:14:13.574Z,11.07
2022-12-25T12:16:42.872Z,10.70
2022-12-25T12:19:25.738Z,10.68
2022-12-25T12:21:58.482Z,14.35
2022-12-25T12:24:34.703Z,11.90
2022-12-25T12:27:07.053Z,14.65
2022-12-25T12:29:44.446Z,14.35
2022-12-25T12:34:59.987Z,16.65
2022-12-25T12:37:34.002Z,10.77
2022-12-25T12:40:06.475Z,13.35
2022-12-25T12:42:46.350Z,12.35
2022-12-25T12:45:21.974Z,15.23
2022-12-25T12:47:53.088Z,14.35
2022-12-25T12:50:34.920Z,14.65
2022-12-25T12:53:29.892Z,14.80
2022-12-25T12:56:11.714Z,12.63
2022-12-25T12:58:50.048Z,11.60
2022-12-25T13:01:40.866Z,14.30
2022-12-25T13:04:41.820Z,12.68
2022-12-25T13:07:33.119Z,12.23
2022-12-25T13:10:14.745Z,14.10
2022-12-25T13:12:43.934Z,12.02
2022-12-25T13:15:15.307Z,11.40
2022-12-25T13:17:46.902Z,10.80
2022-12-25T13:20:24.939Z,12.05
2022-12-25T13:22:55.473Z,17.48
2022-12-25T13:25:25.718Z,15.60
2022-12-25T13:27:59.631Z,16.38
2022-12-25T13:30:29.080Z,12.40
2022-12-25T13:33:00.254Z,13.25
2022-12-25T13:35:29.435Z,11.52
2022-12-25T13:38:00.154Z,12.77
2022-12-25T13:40:30.070Z,10.00
2022-12-25T13:43:00.911Z,13.98
2022-12-25T13:45:34.013Z,10.80
2022-12-25T13:48:15.888Z,11.23
2022-12-25T13:50:48.669Z,11.05
2022-12-25T13:53:19.354Z,14.98
2022-12-25T13:55:53.399Z,12.88
2022-12-25T13:58:28.615Z,10.57
2022-12-25T14:00:59.883Z,11.57
2022-12-25T14:03:36.992Z,13.10
2022-12-25T14:06:15.416Z,9.65
2022-12-25T14:08:47.357Z,10.30
2022-12-25T14:11:20.567Z,11.73
2022-12-25T14:13:53.100Z,10.52
2022-12-25T14:16:22.997Z,12.10
2022-12-25T14:18:54.911Z,11.70
2022-12-25T14:21:30.209Z,10.82
2022-12-25T14:24:01.250Z,11.40
2022-12-25T14:26:34.239Z,8.93
2022-12-25T14:29:17.148Z,10.52
2022-12-25T14:31:48.383Z,9.55
2022-12-25T14:34:23.089Z,10.07
2022-12-25T14:36:53.541Z,11.13
2022-12-25T14:39:33.687Z,10.98
2022-12-25T14:42:14.470Z,15.40
2022-12-25T14:44:43.598Z,20.80
2022-12-25T14:47:20.252Z,14.00
2022-12-25T14:49:49.834Z,15.37
2022-12-25T14:52:22.940Z,12.57
2022-12-25T14:54:58.127Z,14.88
2022-12-25T14:57:31.999Z,11.65
2022-12-25T15:00:07.963Z,12.18
2022-12-25T15:02:46.795Z,12.73
2022-12-25T15:05:32.189Z,10.90
2022-12-25T15:08:26.591Z,12.10
2022-12-25T15:11:01.880Z,11.35
2022-12-25T15:13:32.661Z,13.68
2022-12-25T15:16:07.714Z,10.57
2022-12-25T15:18:42.071Z,10.65
2022-12-25T15:21:17.904Z,12.35
2022-12-25T15:23:47.362Z,9.50
2022-12-25T15:26:18.229Z,10.95
2022-12-25T15:28:47.403Z,12.02
2022-12-25T15:31:23.609Z,14.82
2022-12-25T15:33:53.672Z,11.60
2022-12-25T15:36:23.619Z,13.27
2022-12-25T15:38:53.443Z,11.80
2022-12-25T15:41:46.414Z,12.43
2022-12-25T15:44:16.775Z,12.25
2022-12-25T15:46:46.441Z,12.55
2022-12-25T15:49:17.213Z,9.30
2022-12-25T15:51:47.198Z,10.75
2022-12-25T15:54:16.496Z,10.48
2022-12-25T15:56:50.039Z,11.55
2022-12-25T15:59:21.735Z,14.20
2022-12-25T16:01:53.688Z,69.82
2022-12-25T16:04:24.189Z,36.17
2022-12-25T16:06:54.321Z,26.58
2022-12-25T16:09:23.802Z,17.63
2022-12-25T16:11:54.705Z,18.02
2022-12-25T16:14:23.933Z,17.67
2022-12-25T16:16:53.190Z,17.65
2022-12-25T16:19:22.195Z,22.85
2022-12-25T16:21:51.376Z,19.30
2022-12-25T16:24:20.528Z,17.95
2022-12-25T16:26:49.960Z,17.33
2022-12-25T16:29:20.445Z,19.58
2022-12-25T16:31:49.634Z,21.65
2022-12-25T16:34:18.752Z,18.15
2022-12-25T16:36:47.872Z,20.10
2022-12-25T16:39:16.952Z,25.35
2022-12-25T16:41:46.923Z,20.38
2022-12-25T16:44:16.092Z,24.42
2022-12-25T16:46:46.740Z,32.78
2022-12-25T16:49:15.886Z,36.95
2022-12-25T16:51:45.006Z,20.27
2022-12-25T16:54:14.129Z,15.93
2022-12-25T16:56:43.314Z,22.65
2022-12-25T16:59:13.302Z,25.00
2022-12-25T17:01:44.089Z,27.10
2022-12-25T17:04:15.460Z,24.48
2022-12-25T17:06:47.334Z,25.70
2022-12-25T17:09:17.101Z,25.88
2022-12-25T17:11:51.912Z,18.58
2022-12-25T17:14:25.582Z,18.30
2022-12-25T17:17:00.682Z,20.90
2022-12-25T17:19:31.638Z,20.42
2022-12-25T17:22:01.210Z,20.17
2022-12-25T17:24:30.716Z,20.77
2022-12-25T17:27:00.031Z,20.02
2022-12-25T17:29:29.558Z,22.42
2022-12-25T17:32:01.850Z,20.08
2022-12-25T17:34:33.032Z,25.15
2022-12-25T17:37:03.164Z,27.35
2022-12-25T17:39:35.650Z,24.67
2022-12-25T17:42:05.608Z,20.52
2022-12-25T17:44:35.045Z,18.67
2022-12-25T17:47:04.777Z,20.77
2022-12-25T17:49:36.825Z,21.92
2022-12-25T17:52:06.671Z,23.88
2022-12-25T17:54:40.839Z,25.25
2022-12-25T17:57:11.459Z,27.15
2022-12-25T17:59:40.961Z,30.17
2022-12-25T18:02:12.143Z,27.50
2022-12-25T18:04:47.369Z,24.83
2022-12-25T18:07:17.674Z,28.52
2022-12-25T18:09:47.193Z,30.60
2022-12-25T18:12:16.586Z,21.73
2022-12-25T18:14:45.931Z,27.83
2022-12-25T18:17:15.474Z,22.70
2022-12-25T18:19:46.019Z,26.50
2022-12-25T18:22:15.698Z,26.52
2022-12-25T18:24:48.523Z,24.08
2022-12-25T18:27:23.378Z,16.63
2022-12-25T18:29:55.488Z,16.45
2022-12-25T18:32:27.959Z,15.88
2022-12-25T18:34:58.861Z,22.75
2022-12-25T18:37:31.926Z,22.15
2022-12-25T18:40:05.092Z,18.25
2022-12-25T18:42:40.095Z,24.38
2022-12-25T18:45:12.653Z,20.75
2022-12-25T18:47:41.962Z,20.92
2022-12-25T18:50:13.519Z,26.55
2022-12-25T18:52:49.304Z,22.70
2022-12-25T18:55:20.777Z,29.55
2022-12-25T18:57:50.155Z,25.55
2022-12-25T19:00:20.251Z,28.42
2022-12-25T19:02:49.698Z,30.02
2022-12-25T19:05:20.371Z,22.70
2022-12-25T19:07:49.731Z,20.90
2022-12-25T19:10:19.452Z,26.73
2022-12-25T19:12:48.728Z,30.02
2022-12-25T19:15:18.118Z,27.17
2022-12-25T19:17:47.347Z,22.85
2022-12-25T19:20:16.881Z,20.83
2022-12-25T19:22:47.745Z,22.90
2022-12-25T19:25:18.580Z,25.95
2022-12-25T19:27:48.197Z,35.95
2022-12-25T19:30:18.471Z,27.00
2022-12-25T19:32:48.774Z,28.85
2022-12-25T19:35:19.652Z,28.17
2022-12-25T19:37:50.326Z,37.72
2022-12-25T19:40:20.452Z,46.70
2022-12-25T19:42:50.083Z,40.03
2022-12-25T19:45:21.986Z,43.40
2022-12-25T19:47:52.986Z,42.47
2022-12-25T19:50:22.408Z,36.83
2022-12-25T19:52:53.256Z,41.90
2022-12-25T19:55:22.789Z,34.55
2022-12-25T19:57:52.440Z,39.22
2022-12-25T20:00:23.407Z,38.47
2022-12-25T20:02:54.048Z,48.60
2022-12-25T20:05:29.371Z,51.67
2022-12-25T20:08:00.333Z,47.85
2022-12-25T20:10:32.963Z,40.15
2022-12-25T20:13:02.150Z,38.10
2022-12-25T20:15:33.121Z,37.95
2022-12-25T20:18:04.158Z,38.85
2022-12-25T20:20:33.872Z,36.20
2022-12-25T20:23:05.818Z,41.80
2022-12-25T20:25:35.083Z,47.25
2022-12-25T20:28:04.405Z,37.75
2022-12-25T20:30:33.632Z,35.45
2022-12-25T20:33:02.884Z,39.80
2022-12-25T20:35:32.104Z,36.72
2022-12-25T20:38:01.410Z,37.53
2022-12-25T20:40:46.807Z,41.88
2022-12-25T20:43:21.324Z,34.97
2022-12-25T20:45:52.888Z,35.05
2022-12-25T20:48:22.365Z,34.90
2022-12-25T20:50:52.433Z,41.15
2022-12-25T20:53:24.567Z,38.58
2022-12-25T20:55:55.289Z,52.05
2022-12-25T20:58:24.353Z,55.78
2022-12-25T21:00:54.160Z,48.70
2022-12-25T21:03:23.607Z,43.38
2022-12-25T21:05:54.843Z,38.47
2022-12-25T21:08:26.773Z,41.67
2022-12-25T21:11:01.081Z,35.60
2022-12-25T21:13:33.101Z,46.28
2022-12-25T21:16:06.209Z,39.38
2022-12-25T21:18:36.834Z,45.38
2022-12-25T21:21:07.905Z,47.60
2022-12-25T21:23:40.115Z,42.47
2022-12-25T21:26:22.076Z,43.40
2022-12-25T21:28:55.672Z,39.20
2022-12-25T21:31:26.504Z,41.78
2022-12-25T21:33:55.893Z,56.90
2022-12-25T21:36:27.901Z,56.58
2022-12-25T21:39:00.314Z,39.17
2022-12-25T21:41:33.595Z,37.28
2022-12-25T21:44:03.440Z,31.38
2022-12-25T21:46:33.949Z,33.88
2022-12-25T21:49:03.437Z,40.60
2022-12-25T21:51:52.739Z,44.55
2022-12-25T21:54:24.282Z,41.67
2022-12-25T21:56:55.295Z,33.03
2022-12-25T21:59:24.595Z,30.02
2022-12-25T22:01:54.334Z,36.22
2022-12-25T22:04:24.808Z,35.35
2022-12-25T22:07:11.550Z,38.47
2022-12-25T22:09:40.764Z,35.55
2022-12-25T22:12:34.173Z,38.42
2022-12-25T22:15:06.819Z,46.63
2022-12-25T22:17:56.599Z,43.38
2022-12-25T22:20:28.255Z,43.17
2022-12-25T22:22:58.016Z,40.90
2022-12-25T22:25:27.687Z,36.47
2022-12-25T22:27:59.368Z,42.05
2022-12-25T22:30:30.871Z,40.30
2022-12-25T22:33:00.081Z,38.90
2022-12-25T22:35:29.274Z,50.53
2022-12-25T22:37:58.840Z,77.20
2022-12-25T22:40:28.171Z,58.20
2022-12-25T22:42:58.808Z,60.08
2022-12-25T22:45:27.858Z,53.55
2022-12-25T22:47:57.144Z,47.72
2022-12-25T22:50:26.239Z,43.55
2022-12-25T22:52:55.411Z,38.95
2022-12-25T22:55:24.701Z,42.38
2022-12-25T22:57:53.819Z,40.53
2022-12-25T23:00:24.465Z,39.72
2022-12-25T23:02:53.746Z,33.55
2022-12-25T23:05:23.001Z,32.47
2022-12-25T23:07:53.801Z,32.80
2022-12-25T23:10:23.165Z,37.28
2022-12-25T23:13:09.464Z,39.95
2022-12-25T23:15:41.579Z,43.75
2022-12-25T23:18:28.408Z,45.55
2022-12-25T23:21:19.035Z,43.15
2022-12-25T23:24:04.771Z,46.70
2022-12-25T23:26:33.882Z,47.55
2022-12-25T23:29:20.539Z,50.88
2022-12-25T23:31:53.590Z,44.97
2022-12-25T23:34:23.510Z,43.88
2022-12-25T23:36:52.763Z,49.08
2022-12-25T23:39:22.312Z,50.42
2022-12-25T23:41:51.573Z,47.58
2022-12-25T23:44:20.994Z,51.78
2022-12-25T23:46:52.738Z,47.95
2022-12-25T23:49:23.930Z,38.10
2022-12-25T23:51:53.760Z,36.97
2022-12-25T23:54:26.119Z,29.98
2022-12-25T23:56:57.340Z,37.50
2022-12-25T23:59:27.384Z,38.60
